createdAt,value
2023-08-12T05:52:45.473Z,17.60
2023-08-12T05:58:45.702Z,17.90
2023-08-12T06:01:12.835Z,18.00
2023-08-12T06:19:05.089Z,18.90
2023-08-12T08:38:40.204Z,23.80
2023-08-12T08:47:48.400Z,23.90
2023-08-12T08:50:27.356Z,24.00
2023-08-12T08:52:56.976Z,24.00
2023-08-12T08:55:24.625Z,23.80
2023-08-12T08:57:51.919Z,23.90
2023-08-12T09:00:19.885Z,24.10
2023-08-12T09:02:56.108Z,24.00
2023-08-12T09:05:24.828Z,23.90
2023-08-12T09:07:53.249Z,23.90
2023-08-12T09:10:22.766Z,23.90
2023-08-12T09:12:56.086Z,24.00
2023-08-12T09:15:23.200Z,23.90
2023-08-12T09:17:50.533Z,23.90
2023-08-12T09:20:17.834Z,23.90
2023-08-12T09:22:45.061Z,24.10
2023-08-12T09:25:12.382Z,24.00
2023-08-12T09:27:39.805Z,24.00
2023-08-12T09:30:08.985Z,23.90
2023-08-12T09:32:36.336Z,24.00
2023-08-12T09:35:07.430Z,24.10
2023-08-12T09:37:34.920Z,24.10
2023-08-12T09:40:02.612Z,24.00
2023-08-12T09:42:29.858Z,24.10
2023-08-12T09:44:58.399Z,24.20
2023-08-12T09:47:28.294Z,24.20
2023-08-12T09:49:56.402Z,24.10
2023-08-12T09:52:26.046Z,24.20
2023-08-12T09:54:57.797Z,24.20
2023-08-12T09:57:29.979Z,24.20
2023-08-12T09:59:58.893Z,24.20
2023-08-12T10:02:26.672Z,24.20
2023-08-12T10:04:57.632Z,24.30
2023-08-12T10:07:26.220Z,24.40
2023-08-12T10:09:54.924Z,24.40
2023-08-12T10:12:22.841Z,24.40
2023-08-12T10:14:50.170Z,24.50
2023-08-12T10:17:26.440Z,24.60
2023-08-12T10:19:59.202Z,24.50
2023-08-12T10:22:31.792Z,24.40
2023-08-12T10:25:00.734Z,24.40
2023-08-12T10:27:28.832Z,24.50
2023-08-12T10:30:04.124Z,24.60
2023-08-12T10:32:33.114Z,24.60
2023-08-12T10:35:00.805Z,24.60
2023-08-12T10:37:32.220Z,24.60
2023-08-12T10:39:59.298Z,24.60
2023-08-12T10:42:45.720Z,24.50
2023-08-12T10:45:15.556Z,24.50
2023-08-12T10:47:47.637Z,24.60
2023-08-12T10:50:23.594Z,24.50
2023-08-12T10:52:55.095Z,24.60
2023-08-12T10:55:24.454Z,24.70
2023-08-12T10:57:57.069Z,24.90
2023-08-12T11:00:31.784Z,24.90
2023-08-12T11:02:59.475Z,24.80
2023-08-12T11:05:38.366Z,25.00
2023-08-12T11:08:07.469Z,25.00
2023-08-12T11:10:36.472Z,24.90
2023-08-12T11:13:04.768Z,24.90
2023-08-12T11:15:42.880Z,24.90
2023-08-12T11:18:11.013Z,24.80
2023-08-12T11:20:39.347Z,24.50
2023-08-12T11:23:08.105Z,24.50
2023-08-12T11:25:36.445Z,24.60
2023-08-12T11:28:06.215Z,24.80
2023-08-12T11:30:33.505Z,25.00
2023-08-12T11:33:02.597Z,25.10
2023-08-12T11:35:31.034Z,25.00
2023-08-12T11:37:59.503Z,25.00
2023-08-12T11:40:30.441Z,25.10
2023-08-12T11:42:57.750Z,25.00
2023-08-12T11:45:27.319Z,25.10
2023-08-12T11:47:55.381Z,25.10
2023-08-12T11:50:28.422Z,25.20
2023-08-12T11:52:57.531Z,25.10
2023-08-12T11:55:25.871Z,25.20
2023-08-12T11:57:53.838Z,25.20
2023-08-12T12:00:21.574Z,25.20
2023-08-12T12:02:56.983Z,25.20
2023-08-12T12:05:31.308Z,25.20
2023-08-12T12:07:59.961Z,25.20
2023-08-12T12:10:36.844Z,25.30
2023-08-12T12:13:05.629Z,25.30
2023-08-12T12:15:39.268Z,25.40
2023-08-12T12:18:14.487Z,25.30
2023-08-12T12:20:58.621Z,25.40
2023-08-12T12:23:34.760Z,25.40
2023-08-12T12:26:03.316Z,25.40
2023-08-12T12:28:30.849Z,25.40
2023-08-12T12:30:58.142Z,25.40
2023-08-12T12:33:25.378Z,25.50
2023-08-12T12:35:58.897Z,25.50
2023-08-12T12:38:28.241Z,25.60
2023-08-12T12:40:55.423Z,25.50
2023-08-12T12:43:22.489Z,25.40
2023-08-12T12:45:49.560Z,25.40
2023-08-12T12:48:16.741Z,25.60
2023-08-12T12:50:43.950Z,25.60
2023-08-12T12:53:11.101Z,25.60
2023-08-12T12:55:38.298Z,25.60
2023-08-12T12:58:05.320Z,25.50
2023-08-12T13:00:32.366Z,25.50
2023-08-12T13:02:59.610Z,25.70
2023-08-12T13:05:26.856Z,25.70
2023-08-12T13:07:54.024Z,25.80
2023-08-12T13:10:21.341Z,25.80
2023-08-12T13:12:48.345Z,25.80
2023-08-12T13:15:15.633Z,25.70
2023-08-12T13:17:43.009Z,25.70
2023-08-12T13:20:11.081Z,25.70
2023-08-12T13:22:38.183Z,25.80
2023-08-12T13:25:05.761Z,25.70
2023-08-12T13:27:33.156Z,25.70
2023-08-12T13:30:00.269Z,25.60
2023-08-12T13:32:27.373Z,25.60
2023-08-12T13:34:54.904Z,25.60
2023-08-12T13:37:21.957Z,25.70
2023-08-12T13:39:49.049Z,25.80
2023-08-12T13:42:16.193Z,25.90
2023-08-12T13:44:43.287Z,25.80
2023-08-12T13:47:10.358Z,25.90
2023-08-12T13:49:37.429Z,25.90
2023-08-12T13:52:05.292Z,25.90
2023-08-12T13:54:32.393Z,25.80
2023-08-12T13:57:00.807Z,25.90
2023-08-12T13:59:27.910Z,25.90
2023-08-12T14:01:57.832Z,25.90
2023-08-12T14:04:25.259Z,25.90
2023-08-12T14:06:53.036Z,25.90
2023-08-12T14:09:21.231Z,25.80
2023-08-12T14:11:48.399Z,25.90
2023-08-12T14:14:15.954Z,26.00
2023-08-12T14:16:43.043Z,26.10
2023-08-12T14:19:10.216Z,25.90
2023-08-12T14:21:37.251Z,25.60
2023-08-12T14:24:04.803Z,25.60
2023-08-12T14:26:31.869Z,25.60
2023-08-12T14:28:58.910Z,25.70
2023-08-12T14:31:26.028Z,25.90
2023-08-12T14:33:53.300Z,25.90
2023-08-12T14:36:20.583Z,25.80
2023-08-12T14:38:47.644Z,25.70
2023-08-12T14:41:14.725Z,25.80
2023-08-12T14:43:41.878Z,25.70
2023-08-12T14:46:09.185Z,25.60
2023-08-12T14:48:36.362Z,25.60
2023-08-12T14:51:03.496Z,25.60
2023-08-12T14:53:30.668Z,25.70
2023-08-12T14:55:57.778Z,25.60
2023-08-12T14:58:24.781Z,25.50
2023-08-12T15:00:51.995Z,25.50
2023-08-12T15:03:19.578Z,25.40
2023-08-12T15:05:46.800Z,25.40
2023-08-12T15:08:14.141Z,25.40
2023-08-12T15:10:41.323Z,25.40
2023-08-12T15:13:08.362Z,25.40
2023-08-12T15:15:35.445Z,25.50
2023-08-12T15:18:03.031Z,25.50
2023-08-12T15:20:32.222Z,25.40
2023-08-12T15:22:59.581Z,25.40
2023-08-12T15:25:26.817Z,25.40
2023-08-12T15:27:53.852Z,25.40
2023-08-12T15:30:23.463Z,25.40
2023-08-12T15:32:50.786Z,25.30
2023-08-12T15:35:17.971Z,25.30
2023-08-12T15:37:45.025Z,25.30
2023-08-12T15:40:12.759Z,25.30
2023-08-12T15:42:40.089Z,25.20
2023-08-12T15:45:08.061Z,25.20
2023-08-12T15:47:36.179Z,25.20
2023-08-12T15:50:03.626Z,25.20
2023-08-12T15:52:34.076Z,25.20
2023-08-12T15:55:01.961Z,25.20
2023-08-12T15:57:29.335Z,25.20
2023-08-12T15:59:56.573Z,25.20
2023-08-12T16:02:23.616Z,25.20
2023-08-12T16:04:50.840Z,25.20
2023-08-12T16:07:19.734Z,25.20
2023-08-12T16:09:47.121Z,25.10
2023-08-12T16:12:14.479Z,25.10
2023-08-12T16:14:41.744Z,25.10
2023-08-12T16:17:10.545Z,25.00
2023-08-12T16:19:37.825Z,25.10
2023-08-12T16:22:05.267Z,25.00
2023-08-12T16:24:32.343Z,25.00
2023-08-12T16:27:01.059Z,25.00
2023-08-12T16:29:28.731Z,25.00
2023-08-12T16:31:56.137Z,25.00
2023-08-12T16:34:23.269Z,24.90
2023-08-12T16:37:02.119Z,24.90
2023-08-12T16:39:37.825Z,24.90
2023-08-12T16:42:05.002Z,24.90
2023-08-12T16:44:32.025Z,24.90
2023-08-12T16:46:59.182Z,24.80
2023-08-12T16:49:26.314Z,24.80
2023-08-12T16:51:53.467Z,24.70
2023-08-12T16:54:20.528Z,24.80
2023-08-12T16:56:47.788Z,24.70
2023-08-12T16:59:15.005Z,24.70
2023-08-12T17:01:42.310Z,24.60
2023-08-12T17:04:12.814Z,24.60
2023-08-12T17:06:43.136Z,24.50
2023-08-12T17:09:16.886Z,24.50
2023-08-12T17:11:44.801Z,24.50
2023-08-12T17:14:12.213Z,24.50
2023-08-12T17:16:39.935Z,24.40
2023-08-12T17:19:07.479Z,24.40
2023-08-12T17:21:34.739Z,24.30
2023-08-12T17:24:01.845Z,24.30
2023-08-12T17:26:29.027Z,24.30
2023-08-12T17:28:56.114Z,24.20
2023-08-12T17:31:23.371Z,24.20
2023-08-12T17:33:50.514Z,24.10
2023-08-12T17:36:17.724Z,24.10
2023-08-12T17:38:44.813Z,23.90
2023-08-12T17:41:12.145Z,23.90
2023-08-12T17:43:39.696Z,23.80
2023-08-12T17:46:06.931Z,23.80
2023-08-12T17:48:34.466Z,23.70
2023-08-12T17:51:01.587Z,23.60
2023-08-12T17:53:28.654Z,23.60
2023-08-12T17:55:55.803Z,23.50
2023-08-12T17:58:22.981Z,23.50
2023-08-12T18:00:50.197Z,23.40
2023-08-12T18:03:17.630Z,23.40
2023-08-12T18:05:45.635Z,23.30
2023-08-12T18:08:13.374Z,23.30
2023-08-12T18:10:40.754Z,23.20
2023-08-12T18:13:08.097Z,23.20
2023-08-12T18:15:35.349Z,23.10
2023-08-12T18:18:03.476Z,23.10
2023-08-12T18:20:30.723Z,23.10
2023-08-12T18:22:59.347Z,23.00
2023-08-12T18:25:26.448Z,23.00
2023-08-12T18:27:53.561Z,23.00
2023-08-12T18:30:20.900Z,23.00
2023-08-12T18:32:48.819Z,23.00
2023-08-12T18:35:16.094Z,23.00
2023-08-12T18:37:43.188Z,22.90
2023-08-12T18:40:10.864Z,22.80
2023-08-12T18:42:38.404Z,22.80
2023-08-12T18:45:06.494Z,22.70
2023-08-12T18:47:34.678Z,22.70
2023-08-12T18:50:02.258Z,22.70
2023-08-12T18:52:29.600Z,22.60
2023-08-12T18:54:56.902Z,22.60
2023-08-12T18:57:25.501Z,22.50
2023-08-12T18:59:52.767Z,22.50
2023-08-12T19:02:21.281Z,22.50
2023-08-12T19:04:49.632Z,22.40
2023-08-12T19:07:17.118Z,22.40
2023-08-12T23:09:26.764Z,19.50
2023-08-12T23:11:54.003Z,19.50
2023-08-12T23:14:21.201Z,19.40
2023-08-12T23:36:44.426Z,19.30
2023-08-12T23:39:12.546Z,19.20
2023-08-12T23:41:39.768Z,19.20
2023-08-12T23:44:07.052Z,19.10
